Time;durP1;ratioP1;P1;durP2;ratioP2;P2;SDS_P1;SDS_P2;PMS_P1;PMS_P2;Temp;Humidity;BMP_temperature;BMP_pressure;BME280_temperature;BME280_humidity;BME280_pressure;Samples;Min_cycle;Max_cycle;Signal;HPM_P1;HPM_P2
2021/11/27 00:30:20;;;;;;;2.05;1.05;;;;;;;16.69;52.43;98468.94;5978756;23;21049;-77
2021/11/27 00:32:46;;;;;;;3.05;1.10;;;;;;;16.68;52.47;98459.47;4922442;29;20043;-77
2021/11/27 00:35:11;;;;;;;1.30;0.88;;;;;;;16.70;52.48;98462.84;4938562;29;20035;-78
2021/11/27 00:37:37;;;;;;;2.58;0.80;;;;;;;16.70;52.57;98459.38;4938858;29;20110;-78
2021/11/27 00:40:08;;;;;;;2.90;0.90;;;;;;;16.70;52.38;98461.97;4906908;29;20027;-79
2021/11/27 00:42:33;;;;;;;2.15;0.95;;;;;;;16.69;52.57;98465.50;4938744;29;20498;-79
2021/11/27 00:44:59;;;;;;;1.33;0.82;;;;;;;16.69;52.53;98468.94;4922546;29;20482;-79
2021/11/27 00:47:25;;;;;;;2.22;0.90;;;;;;;16.68;52.47;98475.03;4922387;29;20114;-78
2021/11/27 00:49:53;;;;;;;1.65;0.88;;;;;;;16.66;52.57;98475.09;4939731;29;20059;-77
2021/11/27 00:52:19;;;;;;;1.65;0.90;;;;;;;16.66;52.60;98474.25;4922366;29;20028;-79
2021/11/27 00:54:44;;;;;;;2.08;1.00;;;;;;;16.66;52.45;98479.47;4938400;29;20035;-79
2021/11/27 00:57:10;;;;;;;1.75;0.80;;;;;;;16.66;52.24;98477.69;4906579;29;20060;-78
2021/11/27 00:59:35;;;;;;;1.85;0.90;;;;;;;16.68;52.33;98469.84;4922284;29;20028;-76
2021/11/27 01:02:01;;;;;;;1.83;0.88;;;;;;;16.67;52.34;98481.97;4906332;29;20032;-76
2021/11/27 01:04:27;;;;;;;1.73;0.90;;;;;;;16.67;52.12;98478.53;4922152;29;20049;-76
2021/11/27 01:06:52;;;;;;;2.13;0.88;;;;;;;16.68;52.22;98482.84;4938012;29;20383;-76
2021/11/27 01:09:18;;;;;;;2.13;0.95;;;;;;;16.69;52.47;98478.47;4938086;29;20046;-76
2021/11/27 01:11:47;;;;;;;1.45;0.80;;;;;;;16.66;52.33;98482.91;4922239;29;20020;-76
2021/11/27 01:14:19;;;;;;;1.35;0.73;;;;;;;16.66;52.38;98482.91;4937881;29;20028;-76
2021/11/27 01:16:47;;;;;;;1.55;0.80;;;;;;;16.65;52.21;98485.53;4921795;29;20107;-77
2021/11/27 01:19:13;;;;;;;2.15;1.00;;;;;;;16.65;52.24;98486.38;4939052;29;20062;-77
2021/11/27 01:21:45;;;;;;;2.20;0.80;;;;;;;16.65;52.42;98488.97;4922076;29;20055;-76
2021/11/27 01:24:15;;;;;;;1.40;0.70;;;;;;;16.64;52.31;98489.91;4937813;29;20134;-78
2021/11/27 01:26:41;;;;;;;1.67;1.00;;;;;;;16.64;52.25;98489.91;4939049;29;20035;-76
2021/11/27 01:29:07;;;;;;;1.60;0.80;;;;;;;16.64;52.11;98486.47;4937731;29;20474;-76
2021/11/27 01:31:34;;;;;;;2.83;0.90;;;;;;;16.64;52.55;98491.66;4921369;29;20047;-77
2021/11/27 01:33:59;;;;;;;1.55;0.85;;;;;;;16.64;52.26;98494.25;4921541;29;20118;-78
2021/11/27 01:36:24;;;;;;;1.65;0.98;;;;;;;16.64;52.26;98495.09;4906007;29;20115;-77
2021/11/27 01:38:50;;;;;;;2.15;0.70;;;;;;;16.64;52.03;98494.25;4921934;29;20529;-77
2021/11/27 01:41:15;;;;;;;1.50;0.90;;;;;;;16.63;52.22;98502.94;4905827;29;20462;-76
2021/11/27 01:43:43;;;;;;;1.60;0.80;;;;;;;16.62;52.20;98502.09;4890259;29;20028;-76
2021/11/27 01:46:09;;;;;;;1.90;0.85;;;;;;;16.63;52.21;98502.94;4938642;29;20030;-76
2021/11/27 01:48:34;;;;;;;1.90;0.95;;;;;;;16.63;52.29;98502.94;4921588;29;20099;-77
2021/11/27 01:51:09;;;;;;;1.77;0.70;;;;;;;16.63;52.09;98500.34;4905622;29;20027;-77
2021/11/27 01:53:38;;;;;;;1.92;0.82;;;;;;;16.61;52.28;98496.97;4921590;29;20027;-76
2021/11/27 01:56:06;;;;;;;1.83;0.90;;;;;;;16.62;52.17;98488.28;4938566;29;20034;-75
2021/11/27 01:58:34;;;;;;;1.85;0.90;;;;;;;16.61;52.12;98487.44;4921471;29;20034;-75
2021/11/27 02:01:13;;;;;;;1.55;0.82;;;;;;;16.62;52.24;98498.66;4921133;29;20035;-76
2021/11/27 02:03:39;;;;;;;1.30;0.77;;;;;;;16.61;52.17;98495.25;4936952;29;20043;-77
2021/11/27 02:06:06;;;;;;;2.85;0.75;;;;;;;16.62;52.20;98496.06;4905561;29;20035;-76
2021/11/27 02:08:32;;;;;;;1.17;0.70;;;;;;;16.60;52.16;98483.16;4921314;29;20120;-75
2021/11/27 02:10:59;;;;;;;2.08;0.80;;;;;;;16.60;52.18;98492.69;4938147;29;20108;-76
2021/11/27 02:13:25;;;;;;;2.67;0.70;;;;;;;16.60;52.09;98488.34;4920801;29;20059;-77
2021/11/27 02:15:51;;;;;;;1.38;0.70;;;;;;;16.60;52.16;98493.53;4937842;29;20063;-76
2021/11/27 02:18:16;;;;;;;1.77;0.70;;;;;;;16.61;52.18;98497.84;4936707;29;20019;-75
2021/11/27 02:20:54;;;;;;;2.10;0.73;;;;;;;16.59;51.99;98494.47;4889503;29;20028;-77
2021/11/27 02:23:20;;;;;;;1.45;0.70;;;;;;;16.60;52.17;98496.13;4936633;29;20032;-76
2021/11/27 02:25:45;;;;;;;2.85;0.95;;;;;;;16.61;52.15;98489.19;4905094;29;20035;-76
2021/11/27 02:28:11;;;;;;;1.63;0.60;;;;;;;16.60;52.02;98501.31;4905171;29;20044;-76
2021/11/27 02:30:37;;;;;;;1.77;0.90;;;;;;;16.59;52.14;98494.47;4904840;29;20494;-76
2021/11/27 02:33:03;;;;;;;1.42;0.80;;;;;;;16.60;52.21;98490.09;4920541;29;20087;-75
2021/11/27 02:35:28;;;;;;;1.80;0.70;;;;;;;16.59;52.05;98491.00;4904915;29;20070;-76
2021/11/27 02:37:54;;;;;;;2.03;0.70;;;;;;;16.59;52.23;98497.06;4920703;29;20448;-75
2021/11/27 02:40:20;;;;;;;0.90;0.60;;;;;;;16.58;51.97;98490.16;4904850;29;20038;-75
2021/11/27 02:42:45;;;;;;;1.70;0.60;;;;;;;16.56;52.00;98491.97;4904386;29;20390;-77
2021/11/27 02:45:11;;;;;;;3.85;0.70;;;;;;;16.57;52.33;98490.22;4889124;29;20043;-76
2021/11/27 02:47:36;;;;;;;1.02;0.63;;;;;;;16.55;52.14;98490.31;4920455;29;20031;-75
2021/11/27 02:50:04;;;;;;;1.30;0.80;;;;;;;16.56;52.32;98491.13;4937568;29;20062;-77
2021/11/27 02:52:32;;;;;;;1.73;0.80;;;;;;;16.56;52.04;98501.53;4905352;29;20486;-75
2021/11/27 02:54:58;;;;;;;0.82;0.52;;;;;;;16.56;52.20;98498.94;4921895;29;20032;-76
2021/11/27 02:57:24;;;;;;;1.25;0.60;;;;;;;16.56;52.10;98493.72;4921348;29;20034;-75
2021/11/27 02:59:50;;;;;;;0.75;0.50;;;;;;;16.56;51.96;98493.72;4889664;29;20038;-75
2021/11/27 03:02:16;;;;;;;1.45;0.63;;;;;;;16.55;52.00;98498.09;4889099;29;20036;-75
2021/11/27 03:04:41;;;;;;;1.50;0.80;;;;;;;16.56;52.17;98494.56;4904618;29;20044;-75
2021/11/27 03:07:07;;;;;;;1.23;0.70;;;;;;;16.57;52.06;98503.19;4936210;29;20066;-75
2021/11/27 03:09:33;;;;;;;1.17;0.50;;;;;;;16.54;52.17;98498.16;4904182;29;20498;-76
2021/11/27 03:11:59;;;;;;;1.52;0.68;;;;;;;16.54;51.90;98496.38;4936923;29;20159;-76
2021/11/27 03:14:27;;;;;;;1.35;0.60;;;;;;;16.55;52.14;98498.09;4904164;29;20087;-75
2021/11/27 03:16:55;;;;;;;1.85;0.70;;;;;;;16.53;52.16;98502.50;4936913;29;20119;-75
2021/11/27 03:19:20;;;;;;;0.98;0.50;;;;;;;16.54;51.86;98504.19;4919826;29;20442;-76
2021/11/27 03:21:47;;;;;;;1.45;0.70;;;;;;;16.51;52.20;98504.31;4903896;29;20159;-77
2021/11/27 03:24:12;;;;;;;1.10;0.60;;;;;;;16.53;52.04;98507.69;4936683;29;20494;-76
2021/11/27 03:26:38;;;;;;;0.90;0.50;;;;;;;16.54;52.11;98511.13;4936737;29;20038;-75
2021/11/27 03:29:04;;;;;;;1.02;0.50;;;;;;;16.54;51.88;98511.13;4919770;29;20067;-76
2021/11/27 03:31:29;;;;;;;0.93;0.55;;;;;;;16.53;51.91;98512.88;4888278;29;20044;-75
2021/11/27 03:33:55;;;;;;;2.33;0.55;;;;;;;16.53;51.84;98515.47;4919630;29;20490;-75
2021/11/27 03:36:20;;;;;;;0.70;0.45;;;;;;;16.51;52.12;98517.28;4888085;29;20558;-77
2021/11/27 03:38:46;;;;;;;1.10;0.60;;;;;;;16.52;51.92;98526.75;4903729;29;20090;-74
2021/11/27 03:41:13;;;;;;;1.50;0.70;;;;;;;16.52;51.97;98520.72;4919432;29;20034;-76
2021/11/27 03:43:39;;;;;;;1.35;0.50;;;;;;;16.51;51.96;98519.91;4903632;29;20387;-75
2021/11/27 03:46:06;;;;;;;1.10;0.55;;;;;;;16.52;51.97;98520.72;4919455;29;20028;-75
2021/11/27 03:48:37;;;;;;;0.75;0.50;;;;;;;16.53;51.94;98530.22;4919378;29;20083;-75
2021/11/27 03:51:08;;;;;;;2.28;0.45;;;;;;;16.52;52.25;98529.34;4919444;29;20066;-76
2021/11/27 03:53:35;;;;;;;0.93;0.50;;;;;;;16.52;52.27;98537.16;4935153;29;20020;-75
2021/11/27 03:56:05;;;;;;;0.98;0.40;;;;;;;16.52;52.10;98531.13;4935443;29;20401;-77
2021/11/27 03:58:31;;;;;;;3.20;0.70;;;;;;;16.50;52.16;98536.38;4934929;29;20482;-75
2021/11/27 04:00:57;;;;;;;1.20;0.52;;;;;;;16.49;52.04;98539.88;4903347;29;20083;-76
2021/11/27 04:03:24;;;;;;;0.73;0.50;;;;;;;16.50;52.10;98543.31;4919236;29;20040;-76
2021/11/27 04:05:57;;;;;;;0.82;0.40;;;;;;;16.50;52.14;98551.94;4936233;29;20487;-76
2021/11/27 04:08:23;;;;;;;0.77;0.60;;;;;;;16.50;52.07;98551.94;4934914;29;20028;-76
2021/11/27 04:10:49;;;;;;;1.02;0.60;;;;;;;16.50;52.19;98554.53;4918947;29;20028;-76
2021/11/27 04:13:16;;;;;;;3.15;0.65;;;;;;;16.50;52.12;98558.88;4919097;29;20036;-77
2021/11/27 04:15:41;;;;;;;2.05;0.57;;;;;;;16.51;51.88;98558.00;4919019;29;20032;-75
2021/11/27 04:18:07;;;;;;;1.13;0.50;;;;;;;16.49;52.07;98565.00;4903409;29;20039;-76
2021/11/27 04:20:32;;;;;;;0.57;0.45;;;;;;;16.49;51.91;98573.63;4918827;29;20035;-76
2021/11/27 04:22:58;;;;;;;1.40;0.57;;;;;;;16.49;51.90;98578.81;4918927;29;20438;-76
2021/11/27 04:25:24;;;;;;;1.33;0.63;;;;;;;16.49;51.96;98583.19;4903184;29;20486;-75
2021/11/27 04:27:49;;;;;;;1.27;0.40;;;;;;;16.46;52.17;98589.31;4919139;29;20031;-75
2021/11/27 04:30:19;;;;;;;1.15;0.57;;;;;;;16.48;51.73;98597.88;4903167;29;20036;-76
2021/11/27 04:32:45;;;;;;;1.90;0.65;;;;;;;16.48;52.00;98604.84;4918977;29;20107;-76
2021/11/27 04:35:11;;;;;;;2.08;0.57;;;;;;;16.49;51.90;98598.75;4903276;29;20050;-76
2021/11/27 04:37:37;;;;;;;1.30;0.47;;;;;;;16.48;52.14;98597.88;4918932;29;20039;-75
2021/11/27 04:40:03;;;;;;;0.65;0.50;;;;;;;16.47;52.25;98606.59;4903283;29;20042;-76
2021/11/27 04:42:29;;;;;;;1.38;0.60;;;;;;;16.48;51.98;98610.03;4936134;29;20119;-77
2021/11/27 04:44:55;;;;;;;1.60;0.57;;;;;;;16.45;52.06;98611.84;4918971;29;20110;-76
2021/11/27 04:47:20;;;;;;;1.02;0.50;;;;;;;16.47;52.21;98613.56;4903026;29;20036;-75
2021/11/27 04:49:45;;;;;;;0.70;0.47;;;;;;;16.45;51.94;98611.84;4935852;29;20035;-75
2021/11/27 04:52:11;;;;;;;0.88;0.50;;;;;;;16.45;51.99;98624.81;4903488;29;20024;-77
2021/11/27 04:54:36;;;;;;;1.83;0.50;;;;;;;16.46;51.92;98623.06;4918657;29;20028;-77
2021/11/27 04:57:02;;;;;;;1.00;0.50;;;;;;;16.45;52.17;98630.00;4934686;29;20032;-76
2021/11/27 04:59:28;;;;;;;1.40;0.60;;;;;;;16.47;52.06;98631.72;4918835;29;20067;-77
2021/11/27 05:01:54;;;;;;;0.40;0.32;;;;;;;16.44;51.92;98632.69;4903170;29;20151;-75
2021/11/27 05:04:19;;;;;;;1.35;0.60;;;;;;;16.45;51.88;98629.19;4918637;29;20027;-76
2021/11/27 05:06:45;;;;;;;1.20;0.47;;;;;;;16.45;52.07;98640.41;4936653;29;20043;-76
2021/11/27 05:09:11;;;;;;;1.38;0.60;;;;;;;16.44;52.02;98645.66;4906676;29;20035;-76
2021/11/27 05:11:36;;;;;;;0.77;0.40;;;;;;;16.45;51.80;98645.59;4906699;29;20487;-75
2021/11/27 05:14:02;;;;;;;1.08;0.60;;;;;;;16.45;52.24;98644.75;4939607;29;20178;-75
2021/11/27 05:16:28;;;;;;;0.32;0.30;;;;;;;16.43;52.00;98656.94;4906455;29;20115;-75
2021/11/27 05:18:54;;;;;;;0.68;0.47;;;;;;;16.43;52.24;98656.94;4906570;29;20509;-76
2021/11/27 05:21:19;;;;;;;0.77;0.40;;;;;;;16.42;52.11;98663.91;4921811;29;20027;-76
2021/11/27 05:23:45;;;;;;;1.05;0.45;;;;;;;16.44;52.01;98666.44;4922048;29;20040;-76
2021/11/27 05:26:10;;;;;;;1.45;0.60;;;;;;;16.42;52.03;98665.66;4890889;29;20059;-75
2021/11/27 05:28:36;;;;;;;1.20;0.60;;;;;;;16.42;52.03;98666.50;4906091;29;20087;-75
2021/11/27 05:31:02;;;;;;;1.48;0.50;;;;;;;16.41;52.02;98676.94;4937460;29;20024;-76
2021/11/27 05:33:48;;;;;;;2.35;0.40;;;;;;;16.42;51.85;98683.81;4905835;29;20051;-77
2021/11/27 05:36:18;;;;;;;1.08;0.40;;;;;;;16.42;51.88;98691.63;4908530;29;20070;-76
2021/11/27 05:38:45;;;;;;;0.50;0.30;;;;;;;16.43;51.80;98695.88;4921617;29;20023;-74
2021/11/27 05:41:13;;;;;;;1.15;0.50;;;;;;;16.42;51.93;98691.63;4922968;29;20035;-76
2021/11/27 05:43:38;;;;;;;0.63;0.35;;;;;;;16.41;51.69;98695.94;4937446;29;20031;-76
2021/11/27 05:46:03;;;;;;;1.42;0.55;;;;;;;16.41;51.90;98697.69;4905880;29;20032;-76
2021/11/27 05:48:29;;;;;;;0.50;0.30;;;;;;;16.40;51.66;98696.03;4921737;29;20134;-75
2021/11/27 05:50:55;;;;;;;1.58;0.50;;;;;;;16.40;52.08;98698.63;4921608;29;20051;-75
2021/11/27 05:53:20;;;;;;;0.65;0.60;;;;;;;16.40;51.89;98699.44;4905919;29;20024;-76
2021/11/27 05:55:47;;;;;;;0.60;0.40;;;;;;;16.40;51.87;98698.63;4921578;29;20362;-76
2021/11/27 05:58:17;;;;;;;0.80;0.50;;;;;;;16.41;51.72;98705.47;4937101;29;20038;-77
2021/11/27 06:00:43;;;;;;;0.40;0.30;;;;;;;16.39;51.94;98704.69;4938471;29;20059;-76
2021/11/27 06:03:09;;;;;;;0.50;0.38;;;;;;;16.39;51.80;98705.53;4905639;29;20039;-77
2021/11/27 06:05:34;;;;;;;0.50;0.30;;;;;;;16.40;52.02;98712.44;4921296;29;20035;-76
2021/11/27 06:08:00;;;;;;;0.95;0.57;;;;;;;16.38;51.77;98713.41;4905554;29;20090;-76
2021/11/27 06:10:25;;;;;;;0.65;0.30;;;;;;;16.39;51.94;98720.28;4921290;29;20024;-76
2021/11/27 06:12:51;;;;;;;0.63;0.30;;;;;;;16.38;52.00;98719.44;4920991;29;20031;-76
2021/11/27 06:15:16;;;;;;;1.02;0.50;;;;;;;16.38;51.75;98724.63;4938035;29;20024;-76
2021/11/27 06:17:41;;;;;;;0.60;0.40;;;;;;;16.37;52.01;98733.28;4920169;29;20038;-76
2021/11/27 06:20:08;;;;;;;0.63;0.40;;;;;;;16.38;51.51;98732.41;4920803;29;20039;-76
2021/11/27 06:22:33;;;;;;;1.42;0.50;;;;;;;16.38;51.76;98737.59;4920885;29;20039;-76
2021/11/27 06:24:58;;;;;;;0.65;0.43;;;;;;;16.37;51.85;98738.50;4905276;29;20024;-77
2021/11/27 06:27:24;;;;;;;0.77;0.40;;;;;;;16.37;51.89;98746.28;4905371;29;20372;-76
2021/11/27 06:29:50;;;;;;;0.90;0.30;;;;;;;16.35;52.07;98736.84;4921128;29;20386;-76
2021/11/27 06:32:21;;;;;;;0.85;0.63;;;;;;;16.35;51.94;98747.25;4937820;29;20032;-77
2021/11/27 06:34:47;;;;;;;1.52;0.40;;;;;;;16.36;51.78;98746.34;4937746;29;20047;-76
2021/11/27 06:37:12;;;;;;;1.00;0.43;;;;;;;16.35;51.74;98745.50;4905203;29;20032;-75
2021/11/27 06:39:38;;;;;;;1.30;0.50;;;;;;;16.36;51.72;98751.53;4904852;29;20183;-78
2021/11/27 06:42:04;;;;;;;0.85;0.45;;;;;;;16.36;51.67;98759.34;4904712;29;20028;-76
2021/11/27 06:44:29;;;;;;;0.75;0.47;;;;;;;16.35;51.81;98755.03;4904816;29;20087;-76
2021/11/27 06:46:55;;;;;;;0.75;0.32;;;;;;;16.35;51.94;98762.81;4904814;29;20028;-78
2021/11/27 06:49:20;;;;;;;0.90;0.40;;;;;;;16.34;51.95;98766.34;4904877;29;20040;-77
2021/11/27 06:51:46;;;;;;;1.05;0.50;;;;;;;16.34;51.76;98774.13;4889405;29;20045;-77
2021/11/27 06:54:11;;;;;;;1.45;0.55;;;;;;;16.35;51.78;98775.78;4920550;29;20071;-76
2021/11/27 06:56:37;;;;;;;1.23;0.50;;;;;;;16.35;51.91;98778.38;4904569;29;20478;-75
2021/11/27 06:59:02;;;;;;;0.90;0.40;;;;;;;16.35;51.72;98789.66;4904417;29;20032;-76
2021/11/27 07:01:28;;;;;;;0.98;0.40;;;;;;;16.36;51.46;98787.88;4904301;29;20028;-78
2021/11/27 07:03:53;;;;;;;2.45;0.50;;;;;;;16.36;51.65;98786.13;4888991;29;20611;-76
2021/11/27 07:06:19;;;;;;;1.38;0.50;;;;;;;16.35;52.02;98787.03;4904525;29;20118;-75
2021/11/27 07:08:44;;;;;;;6.05;0.50;;;;;;;16.43;52.25;98792.78;4888763;29;20039;-75
2021/11/27 07:11:09;;;;;;;2.10;0.50;;;;;;;16.51;52.56;98792.50;4888705;29;20537;-77
2021/11/27 07:13:35;;;;;;;2.05;0.60;;;;;;;16.57;52.51;98804.38;4904508;29;20039;-76
2021/11/27 07:16:00;;;;;;;4.07;0.50;;;;;;;16.62;52.24;98800.72;4919969;29;20031;-75
2021/11/27 07:18:25;;;;;;;2.47;0.63;;;;;;;16.64;52.49;98813.66;4889073;29;20170;-77
2021/11/27 07:20:51;;;;;;;1.58;0.50;;;;;;;16.66;52.71;98817.06;4904510;29;20027;-77
2021/11/27 07:23:17;;;;;;;0.50;0.35;;;;;;;16.67;52.51;98819.56;4888830;29;20031;-77
2021/11/27 07:25:42;;;;;;;1.63;0.40;;;;;;;16.70;52.80;98817.75;4919913;29;20107;-76
2021/11/27 07:28:10;;;;;;;4.10;0.50;;;;;;;16.71;52.74;98822.06;4919959;29;20024;-77
2021/11/27 07:30:35;;;;;;;4.05;0.50;;;;;;;16.71;52.81;98824.66;4936636;29;20110;-76
2021/11/27 07:33:01;;;;;;;2.55;0.50;;;;;;;16.72;52.74;98828.94;4904039;29;20062;-76
2021/11/27 07:35:27;;;;;;;2.10;0.40;;;;;;;16.74;52.68;98833.16;4919708;29;20418;-76
2021/11/27 07:37:52;;;;;;;2.10;0.45;;;;;;;16.74;52.59;98834.94;4935307;29;20469;-76
2021/11/27 07:40:18;;;;;;;1.10;0.50;;;;;;;16.75;52.81;98836.63;4903712;29;20107;-76
2021/11/27 07:42:43;;;;;;;0.80;0.40;;;;;;;16.74;52.74;98845.31;4936835;29;20035;-76
2021/11/27 07:45:09;;;;;;;1.70;0.40;;;;;;;16.75;52.93;98853.06;4919572;29;20079;-78
2021/11/27 07:47:35;;;;;;;1.92;0.43;;;;;;;16.77;52.59;98853.84;4888142;29;20036;-76
2021/11/27 07:50:04;;;;;;;0.85;0.43;;;;;;;16.76;52.61;98862.53;4903525;29;20032;-76
2021/11/27 07:52:29;;;;;;;1.83;0.45;;;;;;;16.78;52.74;98862.47;4936543;29;20035;-76
2021/11/27 07:54:57;;;;;;;1.67;0.40;;;;;;;16.80;52.57;98863.31;4919469;29;20036;-76
2021/11/27 07:57:22;;;;;;;1.15;0.50;;;;;;;16.78;52.85;98862.47;4919747;29;20024;-76
2021/11/27 07:59:47;;;;;;;2.03;0.50;;;;;;;16.77;52.88;98866.00;4903486;29;20058;-76
2021/11/27 08:02:13;;;;;;;0.75;0.30;;;;;;;16.81;52.89;98862.38;4887984;29;20501;-76
2021/11/27 08:04:38;;;;;;;1.25;0.40;;;;;;;16.81;52.70;98870.19;4903414;29;20123;-75
2021/11/27 08:07:04;;;;;;;0.55;0.30;;;;;;;16.79;52.88;98870.22;4919332;29;20106;-76
2021/11/27 08:09:29;;;;;;;0.82;0.30;;;;;;;16.81;52.82;98871.06;4903400;29;20035;-76
2021/11/27 08:11:54;;;;;;;2.38;0.40;;;;;;;16.82;52.99;98862.34;4903302;29;20019;-75
2021/11/27 08:14:20;;;;;;;0.30;0.30;;;;;;;16.83;52.89;98870.97;4936136;29;20032;-75
2021/11/27 08:16:45;;;;;;;1.45;0.40;;;;;;;16.83;52.82;98878.75;4936181;29;20067;-76
2021/11/27 08:19:11;;;;;;;1.25;0.30;;;;;;;16.84;52.88;98872.69;4903648;29;20073;-76
2021/11/27 08:21:36;;;;;;;0.90;0.40;;;;;;;16.85;52.77;98875.22;4887922;29;20034;-75
2021/11/27 08:24:01;;;;;;;0.50;0.35;;;;;;;16.87;53.11;98869.94;4887887;29;20040;-75
2021/11/27 08:26:27;;;;;;;1.65;0.40;;;;;;;16.88;52.93;98865.63;4936083;29;20028;-75
2021/11/27 08:28:53;;;;;;;1.20;0.32;;;;;;;16.90;52.84;98866.38;4903266;29;20066;-76
2021/11/27 08:31:18;;;;;;;1.67;0.45;;;;;;;16.88;52.83;98866.47;4905725;29;20110;-76
2021/11/27 08:33:43;;;;;;;2.67;0.43;;;;;;;16.91;53.00;98866.34;4903480;29;20023;-77
2021/11/27 08:36:09;;;;;;;1.38;0.40;;;;;;;16.94;52.99;98867.97;4920013;29;20039;-75
2021/11/27 08:38:35;;;;;;;1.33;0.30;;;;;;;16.94;52.79;98868.84;4936305;29;20103;-76
2021/11/27 08:41:00;;;;;;;3.17;0.30;;;;;;;16.94;52.92;98870.56;4920703;29;20026;-76
2021/11/27 08:43:26;;;;;;;1.58;0.30;;;;;;;16.96;52.83;98871.34;4939664;29;20191;-77
2021/11/27 08:45:51;;;;;;;2.10;0.40;;;;;;;16.97;52.93;98878.25;4907391;29;20040;-76
2021/11/27 08:48:17;;;;;;;1.48;0.40;;;;;;;16.96;52.70;98884.34;4939822;29;20039;-76
2021/11/27 08:50:43;;;;;;;1.17;0.40;;;;;;;16.97;52.78;98894.69;4939563;29;20023;-76
2021/11/27 08:53:09;;;;;;;0.70;0.40;;;;;;;16.99;52.74;98894.66;4891214;29;20036;-76
2021/11/27 08:55:34;;;;;;;2.38;0.40;;;;;;;16.99;52.97;98892.88;4907294;29;20039;-77
2021/11/27 08:58:00;;;;;;;0.93;0.50;;;;;;;16.99;52.85;98892.03;4906708;29;20039;-77
2021/11/27 09:00:26;;;;;;;0.60;0.30;;;;;;;16.99;52.75;98903.28;4906528;29;20036;-76
2021/11/27 09:02:56;;;;;;;1.33;0.50;;;;;;;16.99;52.82;98905.88;4922440;29;20027;-75
2021/11/27 09:05:22;;;;;;;0.95;0.40;;;;;;;16.98;52.87;98896.38;4907113;29;20513;-78
2021/11/27 09:07:48;;;;;;;0.90;0.50;;;;;;;16.98;52.68;98898.13;4906766;29;20040;-78
2021/11/27 09:10:14;;;;;;;0.73;0.50;;;;;;;16.99;53.07;98892.88;4906520;29;20027;-78
2021/11/27 09:12:40;;;;;;;1.15;0.45;;;;;;;17.03;52.78;98891.88;4906617;29;20028;-79
2021/11/27 09:15:06;;;;;;;1.00;0.43;;;;;;;16.97;52.92;98884.28;4937893;29;20032;-77
2021/11/27 09:17:31;;;;;;;5.35;1.10;;;;;;;17.04;53.12;98895.31;4906424;29;20118;-77
2021/11/27 09:19:57;;;;;;;4.45;1.27;;;;;;;17.06;52.94;98899.53;4890597;29;20482;-76
2021/11/27 09:22:22;;;;;;;6.28;1.25;;;;;;;17.09;52.91;98901.16;4906174;29;20419;-78
2021/11/27 09:24:48;;;;;;;3.13;1.20;;;;;;;17.13;52.72;98897.53;4906356;29;20040;-80
2021/11/27 09:27:13;;;;;;;6.55;1.80;;;;;;;17.13;53.37;98900.16;4906329;29;20032;-76
2021/11/27 09:29:39;;;;;;;16.58;4.20;;;;;;;17.14;52.76;98906.22;4890712;29;20038;-76
2021/11/27 09:32:07;;;;;;;11.82;4.07;;;;;;;17.15;53.00;98910.50;4937818;29;20034;-77
2021/11/27 09:34:32;;;;;;;13.23;4.15;;;;;;;17.17;52.89;98898.28;4937457;29;20044;-77
2021/11/27 09:36:59;;;;;;;13.27;3.45;;;;;;;17.14;52.81;98906.22;4938967;29;20032;-75
2021/11/27 09:39:25;;;;;;;12.48;3.40;;;;;;;17.13;53.02;98909.69;4938948;29;20023;-78
2021/11/27 09:41:51;;;;;;;10.73;3.33;;;;;;;17.15;53.06;98906.13;4890418;29;20063;-75
2021/11/27 09:44:18;;;;;;;10.68;3.10;;;;;;;17.13;52.95;98905.34;4938650;29;20028;-75
2021/11/27 09:46:45;;;;;;;8.77;3.10;;;;;;;17.14;53.08;98914.84;4937439;29;20036;-75
2021/11/27 09:49:17;;;;;;;12.63;3.45;;;;;;;17.14;53.15;98920.03;4921854;29;20039;-75
2021/11/27 09:51:44;;;;;;;13.20;5.45;;;;;;;17.14;53.11;98914.84;4921069;29;20120;-76
2021/11/27 09:54:16;;;;;;;7.00;2.42;;;;;;;17.12;53.22;98921.84;4937543;29;20031;-75
2021/11/27 09:56:42;;;;;;;10.60;2.70;;;;;;;17.13;53.19;98915.75;4906492;29;20032;-75
2021/11/27 09:59:08;;;;;;;7.32;2.90;;;;;;;17.12;52.95;98924.47;4890092;29;20579;-74
2021/11/27 10:01:36;;;;;;;7.45;2.60;;;;;;;17.09;53.15;98924.56;4921431;29;20047;-75
2021/11/27 10:04:07;;;;;;;6.95;2.40;;;;;;;17.07;53.22;98918.56;4938366;29;20058;-75
2021/11/27 10:06:35;;;;;;;6.75;2.45;;;;;;;17.08;53.04;98920.28;4937258;29;20107;-75
2021/11/27 10:09:06;;;;;;;6.50;2.38;;;;;;;17.08;52.98;98912.47;4921531;29;20055;-75
2021/11/27 10:11:33;;;;;;;5.88;2.45;;;;;;;17.06;53.14;98922.91;4938358;29;20031;-75
2021/11/27 10:13:58;;;;;;;8.85;2.25;;;;;;;17.09;53.29;98918.50;4938179;29;20082;-76
2021/11/27 10:16:24;;;;;;;4.35;1.95;;;;;;;17.10;53.28;98928.88;4905392;29;20035;-75
2021/11/27 10:19:22;;;;;;;6.35;2.20;;;;;;;17.09;52.82;98915.91;4921180;29;20485;-76
2021/11/27 10:21:56;;;;;;;6.88;2.40;;;;;;;17.10;53.10;98921.06;4864498;29;20043;-76
2021/11/27 10:24:25;;;;;;;6.40;1.98;;;;;;;17.12;53.03;98924.47;4920928;29;20023;-75
2021/11/27 10:26:50;;;;;;;7.47;2.20;;;;;;;17.11;52.90;98917.53;4936816;29;20442;-76
2021/11/27 10:29:20;;;;;;;5.07;2.00;;;;;;;17.12;52.90;98913.22;4889699;29;20058;-76
2021/11/27 10:31:48;;;;;;;4.70;2.03;;;;;;;17.14;52.99;98919.22;4938275;29;20028;-76
2021/11/27 10:34:24;;;;;;;5.85;1.77;;;;;;;17.15;52.91;98920.88;4920723;29;20072;-74
2021/11/27 10:36:50;;;;;;;3.90;1.88;;;;;;;17.15;52.85;98916.53;4938094;29;20035;-75
2021/11/27 10:39:16;;;;;;;3.88;1.60;;;;;;;17.17;52.69;98919.91;4937718;29;20035;-76
2021/11/27 10:41:59;;;;;;;6.70;1.95;;;;;;;17.17;52.94;98909.53;4937618;29;20083;-77
2021/11/27 10:44:30;;;;;;;4.43;1.83;;;;;;;17.17;52.93;98914.72;4921252;29;20039;-75
2021/11/27 10:47:17;;;;;;;5.15;1.70;;;;;;;17.15;52.72;98911.34;4937611;29;20043;-75
2021/11/27 10:49:44;;;;;;;5.53;1.90;;;;;;;17.16;52.81;98914.78;4937368;29;20027;-74
2021/11/27 10:52:12;;;;;;;4.10;1.67;;;;;;;17.16;52.93;98922.56;4920600;29;20055;-75
2021/11/27 10:54:51;;;;;;;4.22;1.80;;;;;;;17.12;52.87;98921.84;4937207;29;20071;-75
2021/11/27 10:57:27;;;;;;;4.00;1.80;;;;;;;17.11;52.78;98922.75;4937513;29;20463;-75
2021/11/27 10:59:55;;;;;;;4.53;1.70;;;;;;;17.09;52.49;98931.50;4936085;29;20040;-76
2021/11/27 11:02:23;;;;;;;4.18;1.70;;;;;;;17.05;52.90;98920.41;4919958;29;20026;-75
2021/11/27 11:05:07;;;;;;;4.20;1.60;;;;;;;17.02;53.14;98916.16;4935580;29;20071;-75
2021/11/27 11:07:33;;;;;;;4.28;1.60;;;;;;;17.03;52.81;98922.22;4936126;29;20483;-76
2021/11/27 11:10:21;;;;;;;3.22;1.58;;;;;;;16.99;52.93;98918.88;4937352;29;20090;-75
2021/11/27 11:12:51;;;;;;;5.45;1.70;;;;;;;16.99;53.13;98924.06;4936270;29;20495;-75
2021/11/27 11:15:19;;;;;;;2.90;1.50;;;;;;;16.97;52.99;98920.69;4937455;29;20518;-75
2021/11/27 11:17:47;;;;;;;4.35;1.70;;;;;;;16.97;53.21;98923.28;4937357;29;20023;-76
2021/11/27 11:20:12;;;;;;;3.83;1.58;;;;;;;16.98;52.87;98924.94;4904744;29;20051;-75
2021/11/27 11:22:37;;;;;;;3.65;1.55;;;;;;;16.97;52.95;98927.63;4935980;29;20074;-75
2021/11/27 11:25:08;;;;;;;3.60;1.45;;;;;;;16.96;53.08;98925.91;4888603;29;20481;-75
2021/11/27 11:27:37;;;;;;;3.63;1.30;;;;;;;16.94;52.92;98920.81;4919851;29;20036;-75
2021/11/27 11:30:05;;;;;;;2.97;1.50;;;;;;;16.93;52.97;98920.84;4920463;29;20034;-75
2021/11/27 11:32:31;;;;;;;2.78;1.30;;;;;;;16.92;53.01;98920.00;4919943;29;20475;-76
2021/11/27 11:35:01;;;;;;;2.60;1.30;;;;;;;16.93;53.04;98915.66;4888152;29;20059;-75
2021/11/27 11:37:26;;;;;;;3.05;1.30;;;;;;;16.91;53.08;98920.91;4919657;29;20398;-75
2021/11/27 11:39:53;;;;;;;2.60;1.15;;;;;;;16.91;52.81;98917.47;4904147;29;20031;-76
2021/11/27 11:42:21;;;;;;;2.90;1.35;;;;;;;16.90;52.84;98916.63;4888247;29;20030;-75
2021/11/27 11:44:48;;;;;;;3.35;1.30;;;;;;;16.92;52.70;98921.75;4919790;29;20134;-75
2021/11/27 11:47:14;;;;;;;3.42;1.38;;;;;;;16.91;52.79;98927.84;4904450;29;20062;-75
2021/11/27 11:49:41;;;;;;;2.58;1.15;;;;;;;16.88;52.83;98913.22;4935249;29;20027;-75
2021/11/27 11:52:24;;;;;;;2.60;1.30;;;;;;;16.90;52.80;98919.22;4903507;29;20032;-75
2021/11/27 11:54:56;;;;;;;2.72;1.20;;;;;;;16.91;52.70;98933.88;4919153;29;20020;-75
2021/11/27 11:57:39;;;;;;;2.42;1.20;;;;;;;16.89;52.81;98919.28;4936317;29;20043;-77
2021/11/27 12:00:33;;;;;;;3.20;1.40;;;;;;;16.88;52.72;98928.81;4919126;29;20039;-75
2021/11/27 12:03:03;;;;;;;;;;;;;;;16.89;52.75;98927.06;4936674;29;20028;-75